This is the latest recevied weather packets stored in our database for station/object KC4GS-13. If no packets are shown the sender has not sent any weather packets the latest 10 day(s).
| Time | Temp. | Humidity | Pressure | Rain* | Wind** | Luminosity | Snow |
|---|---|---|---|---|---|---|---|
| 1788109421 | 30.56° C | 67% | 1022.8 hPa | 0 mm | - | 101 W/m² | - |
| 1788109120 | 30.56° C | 65% | 1023 hPa | 0 mm | - | 187 W/m² | - |
| 1788108816 | 30° C | 69% | 1023.1 hPa | 0 mm | - | 103 W/m² | - |
| 1788108512 | 30° C | 71% | 1023.4 hPa | 0 mm | - | 180 W/m² | - |
| 1788108208 | 30° C | 69% | 1023.2 hPa | 0 mm | - | 128 W/m² | - |
| 1788107905 | 30.56° C | 70% | 1023.1 hPa | 0 mm | - | 137 W/m² | - |
| 1788107600 | 30° C | 70% | 1023.3 hPa | 0 mm | - | 152 W/m² | - |
| 1788107294 | 30° C | 69% | 1023.4 hPa | 0 mm | - | 156 W/m² | - |
| 1788106992 | 29.44° C | 72% | 1023.5 hPa | 0 mm | - | 179 W/m² | - |
| 1788106691 | 29.44° C | 72% | 1023.7 hPa | 0 mm | - | 150 W/m² | - |
| 1788106390 | 30° C | 70% | 1023.5 hPa | 0 mm | - | 201 W/m² | - |
| 1788106086 | 30° C | 71% | 1023.7 hPa | 0 mm | - | 163 W/m² | - |
| 1788105781 | 30° C | 70% | 1023.5 hPa | 0 mm | - | 369 W/m² | - |
| 1788105477 | 29.44° C | 72% | 1023.6 hPa | 0 mm | - | 418 W/m² | - |
| 1788105173 | 29.44° C | 73% | 1023.7 hPa | 0 mm | - | 141 W/m² | - |
| 1788104873 | 29.44° C | 72% | 1023.7 hPa | 0 mm | - | 514 W/m² | - |
| 1788104569 | 29.44° C | 72% | 1023.7 hPa | 0 mm | - | 274 W/m² | - |
| 1788104265 | 29.44° C | 73% | 1023.9 hPa | 0 mm | - | 323 W/m² | - |
| 1788103961 | 28.89° C | 74% | 1023.9 hPa | 0 mm | - | 242 W/m² | - |
| 1788103659 | 29.44° C | 73% | 1024 hPa | 0 mm | - | 128 W/m² | - |
| 1788103354 | 29.44° C | 73% | 1023.9 hPa | 0 mm | - | 446 W/m² | - |
| 1788103054 | 28.89° C | 74% | 1024 hPa | 0 mm | - | 379 W/m² | - |
| 1788102753 | 28.33° C | 77% | 1023.8 hPa | 0 mm | - | 588 W/m² | - |
| 1788102449 | 27.78° C | 79% | 1023.7 hPa | 0 mm | - | 670 W/m² | - |
| 1788102148 | 27.78° C | 79% | 1023.9 hPa | 0 mm | - | 131 W/m² | - |
* Rain latest hour (hover to see other rain measurements)
** Current wind speed in m/s (hover to see current wind gust speed)